Time;durP1;ratioP1;P1;durP2;ratioP2;P2;SDS_P1;SDS_P2;PMS_P1;PMS_P2;Temp;Humidity;BMP_temperature;BMP_pressure;BME280_temperature;BME280_humidity;BME280_pressure;Samples;Min_cycle;Max_cycle;Signal;HPM_P1;HPM_P2
2024/01/24 00:01:08;;;;;;;;;;;11.90;99.90;;;;;;4944994;28;20663;-71
2024/01/24 00:03:33;;;;;;;;;;;11.80;99.90;;;;;;4970823;28;20692;-71
2024/01/24 00:05:59;;;;;;;;;;;11.90;99.90;;;;;;4937873;28;21049;-70
2024/01/24 00:08:25;;;;;;;;;;;11.80;99.90;;;;;;4973262;28;19929;-71
2024/01/24 00:10:51;;;;;;;;;;;11.80;99.90;;;;;;4941194;28;19924;-72
2024/01/24 00:13:17;;;;;;;;;;;11.80;99.90;;;;;;4970141;28;20426;-72
2024/01/24 00:15:43;;;;;;;;;;;11.80;99.90;;;;;;4950493;28;19925;-70
2024/01/24 00:18:09;;;;;;;;;;;11.80;99.90;;;;;;4973398;28;20427;-70
2024/01/24 00:20:35;;;;;;;;;;;11.80;99.90;;;;;;4932689;28;19963;-70
2024/01/24 00:23:01;;;;;;;;;;;11.80;99.90;;;;;;4956337;28;19925;-70
2024/01/24 00:25:27;;;;;;;;;;;11.70;99.90;;;;;;4931883;28;19925;-71
2024/01/24 00:27:53;;;;;;;;;;;11.60;99.90;;;;;;4966929;28;19932;-71
2024/01/24 00:30:18;;;;;;;;;;;11.60;99.90;;;;;;4948946;28;19937;-70
2024/01/24 00:32:44;;;;;;;;;;;11.60;99.90;;;;;;4980796;28;19968;-70
2024/01/24 00:35:10;;;;;;;;;;;11.70;99.90;;;;;;4932780;28;20973;-70
2024/01/24 00:37:36;;;;;;;;;;;11.60;99.90;;;;;;4982252;28;19936;-70
2024/01/24 00:40:03;;;;;;;;;;;11.60;99.90;;;;;;4933275;28;20257;-70
2024/01/24 00:42:29;;;;;;;;;;;11.60;99.90;;;;;;4982151;28;20321;-70
2024/01/24 00:44:55;;;;;;;;;;;11.60;99.90;;;;;;4961469;28;19926;-71
2024/01/24 00:47:20;;;;;;;;;;;11.60;99.90;;;;;;4913169;28;20020;-71
2024/01/24 00:49:46;;;;;;;;;;;11.60;99.90;;;;;;4961117;28;20623;-70
2024/01/24 00:52:12;;;;;;;;;;;11.70;99.90;;;;;;4931106;28;19925;-69
2024/01/24 00:54:38;;;;;;;;;;;11.70;99.90;;;;;;4975085;28;19925;-70
2024/01/24 00:57:04;;;;;;;;;;;11.70;99.90;;;;;;4953692;28;19935;-71
2024/01/24 00:59:30;;;;;;;;;;;11.70;99.90;;;;;;4959122;28;20499;-69
2024/01/24 01:01:56;;;;;;;;;;;11.70;99.90;;;;;;4931321;28;19994;-70
2024/01/24 01:04:22;;;;;;;;;;;11.80;99.90;;;;;;4943892;28;20345;-70
2024/01/24 01:06:48;;;;;;;;;;;11.90;99.90;;;;;;4951197;28;21046;-71
2024/01/24 01:09:14;;;;;;;;;;;11.90;99.90;;;;;;4963149;28;19933;-70
2024/01/24 01:11:40;;;;;;;;;;;11.80;99.90;;;;;;4951004;28;20021;-71
2024/01/24 01:14:06;;;;;;;;;;;11.80;99.90;;;;;;4960427;28;19936;-70
2024/01/24 01:16:32;;;;;;;;;;;11.80;99.90;;;;;;4950270;28;21171;-71
2024/01/24 01:18:58;;;;;;;;;;;11.70;99.90;;;;;;4960594;28;20605;-69
2024/01/24 01:21:24;;;;;;;;;;;11.80;99.90;;;;;;4920850;28;19929;-70
2024/01/24 01:23:50;;;;;;;;;;;11.80;99.90;;;;;;4954238;28;19929;-71
2024/01/24 01:26:16;;;;;;;;;;;11.90;99.90;;;;;;4938608;28;19955;-70
2024/01/24 01:28:42;;;;;;;;;;;12.00;99.90;;;;;;4969008;28;20304;-69
2024/01/24 01:31:08;;;;;;;;;;;12.00;99.90;;;;;;4931211;28;19933;-70
2024/01/24 01:33:33;;;;;;;;;;;12.00;99.90;;;;;;4960199;28;19968;-69
2024/01/24 01:35:59;;;;;;;;;;;12.00;99.90;;;;;;4942486;28;19941;-70
2024/01/24 01:38:25;;;;;;;;;;;12.00;99.90;;;;;;4972403;28;21106;-70
2024/01/24 01:40:51;;;;;;;;;;;12.10;99.90;;;;;;4941192;28;19925;-70
2024/01/24 01:43:17;;;;;;;;;;;12.10;99.90;;;;;;4963369;28;19929;-70
2024/01/24 01:45:43;;;;;;;;;;;12.10;99.90;;;;;;4934799;28;19925;-70
2024/01/24 01:48:10;;;;;;;;;;;12.10;99.90;;;;;;4972753;28;19925;-70
2024/01/24 01:50:36;;;;;;;;;;;12.00;99.90;;;;;;4938672;28;20311;-69
2024/01/24 01:53:03;;;;;;;;;;;12.00;99.90;;;;;;4976094;28;19925;-69
2024/01/24 01:55:30;;;;;;;;;;;12.00;99.90;;;;;;4936649;28;19932;-71
2024/01/24 01:57:57;;;;;;;;;;;12.00;99.90;;;;;;4973574;28;20045;-70
2024/01/24 02:00:24;;;;;;;;;;;11.90;99.90;;;;;;4935039;28;19925;-70
2024/01/24 02:02:50;;;;;;;;;;;11.90;99.90;;;;;;4963839;28;19929;-70
2024/01/24 02:05:16;;;;;;;;;;;11.90;99.90;;;;;;4934589;28;19930;-70
2024/01/24 02:07:43;;;;;;;;;;;11.90;99.90;;;;;;4967019;28;19929;-70
2024/01/24 02:10:12;;;;;;;;;;;12.00;99.90;;;;;;4933832;28;19936;-69
2024/01/24 02:12:38;;;;;;;;;;;11.90;99.90;;;;;;4964230;28;21314;-70
2024/01/24 02:15:06;;;;;;;;;;;11.80;99.90;;;;;;4936151;28;19930;-70
2024/01/24 02:17:32;;;;;;;;;;;11.80;99.90;;;;;;4983756;28;19951;-70
2024/01/24 02:19:57;;;;;;;;;;;11.80;99.90;;;;;;4952907;28;19932;-70
2024/01/24 02:22:23;;;;;;;;;;;11.80;99.90;;;;;;4937191;28;19926;-69
2024/01/24 02:24:49;;;;;;;;;;;11.80;99.90;;;;;;4962156;28;19944;-70
2024/01/24 02:27:15;;;;;;;;;;;11.80;99.90;;;;;;4946760;28;19939;-69
2024/01/24 02:29:41;;;;;;;;;;;11.70;99.90;;;;;;4960976;28;19925;-69
2024/01/24 02:32:07;;;;;;;;;;;11.70;99.90;;;;;;4957702;28;20408;-68
2024/01/24 02:34:33;;;;;;;;;;;11.70;99.90;;;;;;4960986;28;19925;-69
2024/01/24 02:36:59;;;;;;;;;;;11.70;99.90;;;;;;4934168;28;19925;-70
2024/01/24 02:39:25;;;;;;;;;;;11.70;99.90;;;;;;4962095;28;19925;-70
2024/01/24 02:41:50;;;;;;;;;;;11.70;99.90;;;;;;4935217;28;20020;-70
2024/01/24 02:44:16;;;;;;;;;;;11.70;99.90;;;;;;4962370;28;19940;-69
2024/01/24 02:46:42;;;;;;;;;;;11.70;99.90;;;;;;4952178;28;20965;-70
2024/01/24 02:49:08;;;;;;;;;;;11.70;99.90;;;;;;4965742;28;19925;-70
2024/01/24 02:51:34;;;;;;;;;;;11.70;99.90;;;;;;4934505;28;19936;-70
2024/01/24 02:54:00;;;;;;;;;;;11.70;99.90;;;;;;4964338;28;19930;-69
2024/01/24 02:56:26;;;;;;;;;;;11.70;99.90;;;;;;4934172;28;19925;-70
2024/01/24 02:58:52;;;;;;;;;;;11.60;99.90;;;;;;4957757;28;19933;-69
2024/01/24 03:01:18;;;;;;;;;;;11.60;99.90;;;;;;4955886;28;19925;-69
2024/01/24 03:03:44;;;;;;;;;;;11.50;99.90;;;;;;4961952;28;19925;-68
2024/01/24 03:06:10;;;;;;;;;;;11.50;99.90;;;;;;4937164;28;19941;-69
2024/01/24 03:09:03;;;;;;;;;;;11.40;99.90;;;;;;4964038;28;19925;-69
2024/01/24 03:11:29;;;;;;;;;;;11.30;99.90;;;;;;4944731;28;19936;-69
2024/01/24 03:13:54;;;;;;;;;;;11.30;99.90;;;;;;4963548;28;19925;-69
2024/01/24 03:16:20;;;;;;;;;;;11.30;99.90;;;;;;4947349;28;20905;-69
2024/01/24 03:18:47;;;;;;;;;;;11.30;99.90;;;;;;4970773;28;19925;-69
2024/01/24 03:21:15;;;;;;;;;;;11.20;99.90;;;;;;4925726;28;20455;-69
2024/01/24 03:23:40;;;;;;;;;;;11.20;99.90;;;;;;4966256;28;19926;-69
2024/01/24 03:26:06;;;;;;;;;;;11.10;99.90;;;;;;4927145;28;19931;-70
2024/01/24 03:28:33;;;;;;;;;;;11.20;99.90;;;;;;4962490;28;19952;-70
2024/01/24 03:30:59;;;;;;;;;;;11.10;99.90;;;;;;4925119;28;19929;-70
2024/01/24 03:33:25;;;;;;;;;;;11.10;99.90;;;;;;4966832;28;19933;-68
2024/01/24 03:35:51;;;;;;;;;;;11.10;99.90;;;;;;4942469;28;19929;-69
2024/01/24 03:38:18;;;;;;;;;;;11.10;99.90;;;;;;4972113;28;19925;-69
2024/01/24 03:40:44;;;;;;;;;;;11.10;99.90;;;;;;4943332;28;19925;-69
2024/01/24 03:43:10;;;;;;;;;;;11.10;99.90;;;;;;4946693;28;21016;-70
2024/01/24 03:45:37;;;;;;;;;;;11.10;99.90;;;;;;4939231;28;20914;-69
2024/01/24 03:48:04;;;;;;;;;;;11.10;99.90;;;;;;4978206;28;19936;-70
2024/01/24 03:50:30;;;;;;;;;;;11.00;99.90;;;;;;4935266;28;19925;-69
2024/01/24 03:52:55;;;;;;;;;;;11.00;99.90;;;;;;4977954;28;20629;-68
2024/01/24 03:55:21;;;;;;;;;;;11.00;99.90;;;;;;4936384;28;19945;-71
2024/01/24 03:57:47;;;;;;;;;;;11.00;99.90;;;;;;4978189;28;20743;-71
2024/01/24 04:00:15;;;;;;;;;;;11.00;99.90;;;;;;4933657;28;19929;-70
2024/01/24 04:02:41;;;;;;;;;;;11.00;99.90;;;;;;4963638;28;19929;-71
2024/01/24 04:05:07;;;;;;;;;;;11.10;99.90;;;;;;4931768;28;21225;-69
2024/01/24 04:07:33;;;;;;;;;;;11.00;99.90;;;;;;4966047;28;19929;-70
2024/01/24 04:09:59;;;;;;;;;;;11.00;99.90;;;;;;4946966;28;20380;-69
2024/01/24 04:12:25;;;;;;;;;;;11.00;99.90;;;;;;4946686;28;20064;-69
2024/01/24 04:14:51;;;;;;;;;;;11.00;99.90;;;;;;4962593;28;19932;-70
2024/01/24 04:17:17;;;;;;;;;;;11.00;99.90;;;;;;4916363;28;20425;-70
2024/01/24 04:19:43;;;;;;;;;;;11.00;99.90;;;;;;4943065;28;19925;-70
2024/01/24 04:22:08;;;;;;;;;;;11.00;99.90;;;;;;4954484;28;19924;-69
2024/01/24 04:24:34;;;;;;;;;;;11.00;99.90;;;;;;4960194;28;19929;-71
2024/01/24 04:27:00;;;;;;;;;;;11.00;99.90;;;;;;4934625;28;19933;-69
2024/01/24 04:29:26;;;;;;;;;;;11.00;99.90;;;;;;4960978;28;19951;-69
2024/01/24 04:31:52;;;;;;;;;;;11.00;99.90;;;;;;4954087;28;20019;-69
2024/01/24 04:34:18;;;;;;;;;;;11.00;99.90;;;;;;4962409;28;19925;-69
2024/01/24 04:36:44;;;;;;;;;;;11.00;99.90;;;;;;4949734;28;19925;-70
2024/01/24 04:39:10;;;;;;;;;;;10.90;99.90;;;;;;4960244;28;19968;-70
2024/01/24 04:41:36;;;;;;;;;;;10.90;99.90;;;;;;4949723;28;19925;-69
2024/01/24 04:44:02;;;;;;;;;;;10.90;99.90;;;;;;4958964;28;19940;-70
2024/01/24 04:46:28;;;;;;;;;;;10.90;99.90;;;;;;4947422;28;19952;-69
2024/01/24 04:48:54;;;;;;;;;;;10.90;99.90;;;;;;4967105;28;20234;-72
2024/01/24 04:51:21;;;;;;;;;;;10.80;99.90;;;;;;4924727;28;19929;-72
2024/01/24 04:53:48;;;;;;;;;;;10.50;99.90;;;;;;4962609;28;19926;-73
2024/01/24 04:56:14;;;;;;;;;;;10.30;99.90;;;;;;4937434;28;19925;-74
2024/01/24 04:58:40;;;;;;;;;;;10.30;99.90;;;;;;4962110;28;19932;-75
2024/01/24 05:01:06;;;;;;;;;;;10.20;99.90;;;;;;4942033;28;19936;-74
2024/01/24 05:03:32;;;;;;;;;;;10.20;99.90;;;;;;4975029;28;19926;-77
2024/01/24 05:05:58;;;;;;;;;;;10.30;99.90;;;;;;4932511;28;21003;-76
2024/01/24 05:08:24;;;;;;;;;;;10.20;99.90;;;;;;4961812;28;19929;-77
2024/01/24 05:10:50;;;;;;;;;;;10.20;99.90;;;;;;4941891;28;19947;-77
2024/01/24 05:13:16;;;;;;;;;;;10.30;99.90;;;;;;4949177;28;19936;-75
2024/01/24 05:15:42;;;;;;;;;;;10.30;99.90;;;;;;4927304;28;19952;-74
2024/01/24 05:18:08;;;;;;;;;;;10.30;99.90;;;;;;4965108;28;21137;-73
2024/01/24 05:20:34;;;;;;;;;;;10.30;99.90;;;;;;4932093;28;19925;-76
2024/01/24 05:23:00;;;;;;;;;;;10.40;99.90;;;;;;4959326;28;19925;-75
2024/01/24 05:25:25;;;;;;;;;;;10.40;99.90;;;;;;4936634;28;20019;-73
2024/01/24 05:27:51;;;;;;;;;;;10.50;99.90;;;;;;4979406;28;20576;-74
2024/01/24 05:30:17;;;;;;;;;;;10.50;99.90;;;;;;4931489;28;19929;-73
2024/01/24 05:32:43;;;;;;;;;;;10.50;99.90;;;;;;4945776;28;19935;-72
2024/01/24 05:35:09;;;;;;;;;;;10.50;99.90;;;;;;4931011;28;19944;-71
2024/01/24 05:37:35;;;;;;;;;;;10.40;99.90;;;;;;4948136;28;19941;-72
2024/01/24 05:40:01;;;;;;;;;;;10.40;99.90;;;;;;4939454;28;19929;-71
2024/01/24 05:42:27;;;;;;;;;;;10.40;99.90;;;;;;4949054;28;19926;-72
2024/01/24 05:44:53;;;;;;;;;;;10.40;99.90;;;;;;4963575;28;19926;-72
2024/01/24 05:47:19;;;;;;;;;;;10.40;99.90;;;;;;4957932;28;19944;-72
2024/01/24 05:49:45;;;;;;;;;;;10.40;99.90;;;;;;4963872;28;21215;-72
2024/01/24 05:52:10;;;;;;;;;;;10.40;99.90;;;;;;4918613;28;19945;-72
2024/01/24 05:54:36;;;;;;;;;;;10.40;99.90;;;;;;4963247;28;20161;-72
2024/01/24 05:57:02;;;;;;;;;;;10.40;99.90;;;;;;4941987;28;21344;-73
2024/01/24 05:59:28;;;;;;;;;;;10.30;99.90;;;;;;4962321;28;19929;-71
2024/01/24 06:01:55;;;;;;;;;;;10.30;99.90;;;;;;4912215;28;21160;-72
2024/01/24 06:04:21;;;;;;;;;;;10.30;99.90;;;;;;4948618;28;19929;-73
2024/01/24 06:06:48;;;;;;;;;;;10.30;99.90;;;;;;4943140;28;19929;-71
2024/01/24 06:09:14;;;;;;;;;;;10.30;99.90;;;;;;4963412;28;20496;-71
2024/01/24 06:11:40;;;;;;;;;;;10.30;99.90;;;;;;4935057;28;19929;-70
2024/01/24 06:14:06;;;;;;;;;;;10.30;99.90;;;;;;4970124;28;19925;-72
2024/01/24 06:16:32;;;;;;;;;;;10.30;99.90;;;;;;4933134;28;20462;-72
2024/01/24 06:18:58;;;;;;;;;;;10.30;99.90;;;;;;4952364;28;20667;-72
2024/01/24 06:21:24;;;;;;;;;;;10.30;99.90;;;;;;4924123;28;19937;-73
2024/01/24 06:23:50;;;;;;;;;;;10.30;99.90;;;;;;4945488;28;19929;-72
2024/01/24 06:26:16;;;;;;;;;;;10.30;99.90;;;;;;4929754;28;21006;-70
2024/01/24 06:28:42;;;;;;;;;;;10.30;99.90;;;;;;4955531;28;19937;-69
2024/01/24 06:31:07;;;;;;;;;;;10.20;99.90;;;;;;4913659;28;19929;-69
2024/01/24 06:33:33;;;;;;;;;;;10.20;99.90;;;;;;4940336;28;19925;-69
2024/01/24 06:36:00;;;;;;;;;;;10.30;99.90;;;;;;4910139;28;20156;-69
2024/01/24 06:38:26;;;;;;;;;;;10.30;99.90;;;;;;4934263;28;19937;-69
2024/01/24 06:40:52;;;;;;;;;;;10.20;99.90;;;;;;4925229;28;21247;-69
2024/01/24 06:43:18;;;;;;;;;;;10.20;99.90;;;;;;4955234;28;20360;-70
2024/01/24 06:45:45;;;;;;;;;;;10.20;99.90;;;;;;4918301;28;19936;-68
2024/01/24 06:48:11;;;;;;;;;;;10.20;99.90;;;;;;4963550;28;19944;-68
2024/01/24 06:50:38;;;;;;;;;;;10.30;99.90;;;;;;4935386;28;20772;-68
2024/01/24 06:53:10;;;;;;;;;;;10.20;99.90;;;;;;4963711;28;19925;-68
2024/01/24 06:55:36;;;;;;;;;;;10.20;99.90;;;;;;4933649;28;19936;-67
2024/01/24 06:58:03;;;;;;;;;;;10.20;99.90;;;;;;4964674;28;20268;-70
2024/01/24 07:00:29;;;;;;;;;;;10.20;99.90;;;;;;4936527;28;19925;-68
2024/01/24 07:02:56;;;;;;;;;;;10.20;99.90;;;;;;4966751;28;19925;-69
2024/01/24 07:05:22;;;;;;;;;;;10.10;99.90;;;;;;4934388;28;19934;-68
2024/01/24 07:07:48;;;;;;;;;;;10.10;99.90;;;;;;4964702;28;20316;-69
2024/01/24 07:10:14;;;;;;;;;;;10.10;99.90;;;;;;4937111;28;19925;-68
2024/01/24 07:12:45;;;;;;;;;;;10.10;99.90;;;;;;4953142;28;19932;-67
2024/01/24 07:15:11;;;;;;;;;;;10.10;99.90;;;;;;4921147;28;20410;-68
2024/01/24 07:17:37;;;;;;;;;;;10.10;99.90;;;;;;4969319;28;19936;-68
2024/01/24 07:20:04;;;;;;;;;;;10.10;99.90;;;;;;4934673;28;19952;-68
2024/01/24 07:22:29;;;;;;;;;;;10.10;99.90;;;;;;4954298;28;20859;-68
2024/01/24 07:24:55;;;;;;;;;;;10.10;99.90;;;;;;4964767;28;19933;-68
2024/01/24 07:27:21;;;;;;;;;;;10.10;99.90;;;;;;4923387;28;20291;-68
2024/01/24 07:29:49;;;;;;;;;;;10.10;99.90;;;;;;4965738;28;19925;-68
2024/01/24 07:32:15;;;;;;;;;;;10.10;99.90;;;;;;4958235;28;19925;-68
2024/01/24 07:34:41;;;;;;;;;;;10.10;99.90;;;;;;4962092;28;20377;-68
2024/01/24 07:37:10;;;;;;;;;;;10.00;99.90;;;;;;4944268;28;19932;-68
2024/01/24 07:39:36;;;;;;;;;;;10.00;99.90;;;;;;4965993;28;20423;-69
2024/01/24 07:42:02;;;;;;;;;;;10.00;99.90;;;;;;4942544;28;19925;-67
2024/01/24 07:44:28;;;;;;;;;;;10.00;99.90;;;;;;4963491;28;19936;-66
2024/01/24 07:46:54;;;;;;;;;;;10.10;99.90;;;;;;4935686;28;19925;-68
2024/01/24 07:49:20;;;;;;;;;;;10.10;99.90;;;;;;4960862;28;20561;-68
2024/01/24 07:51:46;;;;;;;;;;;10.10;99.90;;;;;;4933126;28;21556;-68
2024/01/24 07:54:12;;;;;;;;;;;10.00;99.90;;;;;;4965518;28;19925;-68
2024/01/24 07:56:39;;;;;;;;;;;10.00;99.90;;;;;;4940968;28;19925;-67
2024/01/24 07:59:05;;;;;;;;;;;10.00;99.90;;;;;;4968741;28;20521;-67
2024/01/24 08:01:31;;;;;;;;;;;10.10;99.90;;;;;;4925704;28;20284;-66
2024/01/24 08:03:58;;;;;;;;;;;10.10;99.90;;;;;;4962698;28;19973;-67
2024/01/24 08:06:25;;;;;;;;;;;10.00;99.90;;;;;;4930024;28;19987;-69
2024/01/24 08:08:50;;;;;;;;;;;10.10;99.90;;;;;;4965562;28;20133;-70
2024/01/24 08:11:24;;;;;;;;;;;10.10;99.90;;;;;;4935368;28;19936;-70
2024/01/24 08:13:50;;;;;;;;;;;10.00;99.90;;;;;;4964021;28;19933;-71
2024/01/24 08:16:18;;;;;;;;;;;10.00;99.90;;;;;;4944775;28;21990;-69
2024/01/24 08:18:44;;;;;;;;;;;10.10;99.90;;;;;;4970252;28;20455;-69
2024/01/24 08:21:11;;;;;;;;;;;10.00;99.90;;;;;;4934408;28;19925;-69
2024/01/24 08:23:37;;;;;;;;;;;10.00;99.90;;;;;;4965341;28;19933;-70
2024/01/24 08:26:03;;;;;;;;;;;10.00;99.90;;;;;;4931409;28;20562;-70
2024/01/24 08:28:29;;;;;;;;;;;10.00;99.90;;;;;;4958100;28;19929;-69
2024/01/24 08:30:55;;;;;;;;;;;10.00;99.90;;;;;;4944963;28;20315;-69
2024/01/24 08:33:21;;;;;;;;;;;10.00;99.90;;;;;;4967776;28;19937;-69
2024/01/24 08:35:47;;;;;;;;;;;10.00;99.90;;;;;;4936631;28;19948;-69
2024/01/24 08:38:13;;;;;;;;;;;10.10;99.90;;;;;;4963253;28;19973;-70
2024/01/24 08:40:40;;;;;;;;;;;10.10;99.90;;;;;;4943887;28;20634;-69
2024/01/24 08:43:05;;;;;;;;;;;10.10;99.90;;;;;;4963458;28;19949;-70
2024/01/24 08:45:32;;;;;;;;;;;10.10;99.90;;;;;;4940705;28;19932;-69
2024/01/24 08:47:58;;;;;;;;;;;10.10;99.90;;;;;;4967865;28;19940;-70
2024/01/24 08:50:24;;;;;;;;;;;10.10;99.90;;;;;;4939858;28;19932;-68
2024/01/24 08:52:51;;;;;;;;;;;10.10;99.90;;;;;;4967378;28;19925;-70
2024/01/24 08:55:17;;;;;;;;;;;10.00;99.90;;;;;;4935020;28;20806;-69
2024/01/24 08:57:43;;;;;;;;;;;10.00;99.90;;;;;;4967174;28;19925;-70
2024/01/24 09:00:11;;;;;;;;;;;10.00;99.90;;;;;;4953001;28;20873;-70
2024/01/24 09:02:37;;;;;;;;;;;10.10;99.90;;;;;;4928295;28;19926;-71
2024/01/24 09:05:03;;;;;;;;;;;10.00;99.90;;;;;;4934653;28;19925;-69
2024/01/24 09:07:29;;;;;;;;;;;10.00;99.90;;;;;;4966984;28;20699;-70
2024/01/24 09:09:55;;;;;;;;;;;10.00;99.90;;;;;;4964316;28;19926;-70
2024/01/24 09:12:21;;;;;;;;;;;10.00;99.90;;;;;;4933835;28;19937;-69
2024/01/24 09:14:47;;;;;;;;;;;10.00;99.90;;;;;;4962344;28;19932;-69
2024/01/24 09:17:13;;;;;;;;;;;10.00;99.90;;;;;;4931494;28;19925;-69
2024/01/24 09:19:42;;;;;;;;;;;10.00;99.90;;;;;;4965750;28;20492;-68
2024/01/24 09:22:11;;;;;;;;;;;10.00;99.90;;;;;;4925433;28;19925;-69
2024/01/24 09:24:37;;;;;;;;;;;10.00;99.90;;;;;;4946233;28;19929;-70
2024/01/24 09:27:03;;;;;;;;;;;10.00;99.90;;;;;;4939781;28;19930;-70
2024/01/24 09:29:29;;;;;;;;;;;10.00;99.90;;;;;;4964842;28;19929;-68
2024/01/24 09:31:55;;;;;;;;;;;10.00;99.90;;;;;;4937341;28;19925;-69
2024/01/24 09:34:23;;;;;;;;;;;10.10;99.90;;;;;;4965620;28;19938;-70
2024/01/24 09:36:49;;;;;;;;;;;10.10;99.90;;;;;;4961083;28;20420;-69
2024/01/24 09:39:15;;;;;;;;;;;10.10;99.90;;;;;;4963418;28;19925;-69
2024/01/24 09:41:42;;;;;;;;;;;10.10;99.90;;;;;;4958836;28;20019;-70
2024/01/24 09:44:08;;;;;;;;;;;10.10;99.90;;;;;;4964467;28;19936;-69
2024/01/24 09:46:37;;;;;;;;;;;10.10;99.90;;;;;;4957557;28;20093;-70
2024/01/24 09:49:05;;;;;;;;;;;10.10;99.90;;;;;;4969813;28;20300;-70
2024/01/24 09:51:33;;;;;;;;;;;10.20;99.90;;;;;;4948115;28;19936;-69
2024/01/24 09:54:06;;;;;;;;;;;10.20;99.90;;;;;;4970432;28;19925;-68
2024/01/24 09:56:33;;;;;;;;;;;10.20;99.90;;;;;;4905123;28;19930;-68
2024/01/24 09:58:59;;;;;;;;;;;10.20;99.90;;;;;;4941562;28;19926;-68
2024/01/24 10:01:25;;;;;;;;;;;10.30;99.90;;;;;;4931674;28;19936;-68
2024/01/24 10:03:52;;;;;;;;;;;10.30;99.90;;;;;;4952307;28;20016;-69
2024/01/24 10:06:18;;;;;;;;;;;10.30;99.90;;;;;;4917330;28;19926;-68
2024/01/24 10:08:44;;;;;;;;;;;10.30;99.90;;;;;;4945252;28;19937;-69
2024/01/24 10:11:10;;;;;;;;;;;10.30;99.90;;;;;;4910269;28;21244;-68
2024/01/24 10:13:39;;;;;;;;;;;10.30;99.90;;;;;;4948771;28;20484;-67
2024/01/24 10:16:07;;;;;;;;;;;10.40;99.90;;;;;;4928676;28;19932;-68
2024/01/24 10:18:33;;;;;;;;;;;10.40;99.90;;;;;;4958485;28;19926;-69
2024/01/24 10:21:03;;;;;;;;;;;10.40;99.90;;;;;;4939198;28;19931;-69
2024/01/24 10:23:29;;;;;;;;;;;10.40;99.90;;;;;;4976358;28;19925;-68
2024/01/24 10:25:55;;;;;;;;;;;10.50;99.90;;;;;;4938337;28;19925;-69
2024/01/24 10:28:21;;;;;;;;;;;10.50;99.90;;;;;;4967654;28;19941;-68
2024/01/24 10:30:49;;;;;;;;;;;10.40;99.90;;;;;;4938330;28;19932;-68
2024/01/24 10:33:15;;;;;;;;;;;10.40;99.90;;;;;;4978737;28;19937;-68
2024/01/24 10:35:44;;;;;;;;;;;10.50;99.90;;;;;;4933963;28;19929;-68
2024/01/24 10:38:13;;;;;;;;;;;10.50;99.90;;;;;;4952726;28;19937;-67
2024/01/24 10:40:39;;;;;;;;;;;10.50;99.90;;;;;;4942830;28;19925;-69
2024/01/24 10:43:08;;;;;;;;;;;10.50;99.90;;;;;;4978939;28;19933;-68
2024/01/24 10:45:34;;;;;;;;;;;10.60;99.90;;;;;;4941957;28;19925;-69
2024/01/24 10:48:00;;;;;;;;;;;10.60;99.90;;;;;;4964782;28;19929;-67
2024/01/24 10:50:26;;;;;;;;;;;10.60;99.90;;;;;;4941645;28;19925;-68
2024/01/24 10:52:52;;;;;;;;;;;10.70;99.90;;;;;;4967472;28;20902;-68
2024/01/24 10:55:20;;;;;;;;;;;10.80;99.90;;;;;;4935668;28;19934;-69
2024/01/24 10:57:47;;;;;;;;;;;10.80;99.90;;;;;;4982867;28;19932;-69
2024/01/24 11:00:15;;;;;;;;;;;10.90;99.90;;;;;;4934386;28;21027;-69
2024/01/24 11:02:41;;;;;;;;;;;11.10;99.90;;;;;;4953851;28;19936;-69
2024/01/24 11:05:08;;;;;;;;;;;11.20;99.90;;;;;;4933876;28;19926;-68
2024/01/24 11:07:37;;;;;;;;;;;11.10;99.90;;;;;;4965609;28;19926;-68
2024/01/24 11:10:19;;;;;;;;;;;11.20;99.90;;;;;;4935707;28;21166;-68
2024/01/24 11:12:45;;;;;;;;;;;11.20;99.90;;;;;;4949298;28;19933;-69
2024/01/24 11:15:12;;;;;;;;;;;11.20;99.90;;;;;;4933902;28;21061;-69
2024/01/24 11:17:39;;;;;;;;;;;11.20;99.90;;;;;;4957521;28;19948;-69
2024/01/24 11:20:06;;;;;;;;;;;11.10;99.90;;;;;;4933509;28;20086;-69
2024/01/24 11:22:32;;;;;;;;;;;11.10;99.90;;;;;;4966058;28;19940;-70
2024/01/24 11:24:59;;;;;;;;;;;11.10;99.90;;;;;;4952464;28;19925;-69
2024/01/24 11:27:35;;;;;;;;;;;11.00;99.90;;;;;;4938049;28;19925;-69
2024/01/24 11:30:04;;;;;;;;;;;11.10;99.90;;;;;;4939058;28;19925;-69
2024/01/24 11:32:45;;;;;;;;;;;10.90;99.90;;;;;;4982198;28;19932;-68
2024/01/24 11:35:28;;;;;;;;;;;10.80;99.90;;;;;;4929031;28;20466;-68
2024/01/24 11:37:54;;;;;;;;;;;10.90;99.90;;;;;;4960249;28;19932;-69
2024/01/24 11:40:21;;;;;;;;;;;10.80;99.90;;;;;;4916210;28;19946;-69
2024/01/24 11:42:54;;;;;;;;;;;10.70;99.90;;;;;;4960520;28;19925;-68
2024/01/24 11:45:24;;;;;;;;;;;10.70;99.90;;;;;;4933779;28;20338;-69
2024/01/24 11:47:51;;;;;;;;;;;10.70;99.90;;;;;;4953159;28;20320;-69
2024/01/24 11:50:17;;;;;;;;;;;10.70;99.90;;;;;;4933789;28;19935;-69
2024/01/24 11:52:44;;;;;;;;;;;10.70;99.90;;;;;;4965233;28;20978;-68
2024/01/24 11:55:10;;;;;;;;;;;10.70;99.90;;;;;;4932792;28;19936;-69
2024/01/24 11:57:37;;;;;;;;;;;10.60;99.90;;;;;;4948143;28;19933;-68
2024/01/24 12:00:06;;;;;;;;;;;10.60;99.90;;;;;;4935038;28;19925;-69
2024/01/24 12:02:32;;;;;;;;;;;10.60;99.90;;;;;;4950029;28;20204;-68
2024/01/24 12:04:58;;;;;;;;;;;10.70;99.90;;;;;;4951725;28;19932;-69
2024/01/24 12:07:24;;;;;;;;;;;10.70;99.90;;;;;;4942223;28;19938;-69
2024/01/24 12:09:50;;;;;;;;;;;10.80;99.90;;;;;;4963439;28;19956;-69
2024/01/24 12:12:16;;;;;;;;;;;10.90;99.90;;;;;;4939081;28;20478;-69
2024/01/24 12:14:43;;;;;;;;;;;11.10;99.90;;;;;;4944873;28;20220;-68
2024/01/24 12:17:09;;;;;;;;;;;11.10;99.90;;;;;;4934832;28;19925;-69
2024/01/24 12:19:39;;;;;;;;;;;11.00;99.90;;;;;;4940585;28;19941;-68
2024/01/24 12:22:06;;;;;;;;;;;11.00;99.90;;;;;;4912261;28;19925;-69
2024/01/24 12:24:32;;;;;;;;;;;11.10;99.90;;;;;;4942734;28;19929;-68
2024/01/24 12:26:59;;;;;;;;;;;11.20;99.90;;;;;;4904628;28;20498;-70
2024/01/24 12:29:25;;;;;;;;;;;11.80;99.90;;;;;;4945947;28;20411;-69
2024/01/24 12:31:51;;;;;;;;;;;12.20;99.90;;;;;;4933946;28;19925;-66
2024/01/24 12:34:21;;;;;;;;;;;12.30;99.90;;;;;;4942070;28;19956;-69
2024/01/24 12:36:47;;;;;;;;;;;12.20;99.90;;;;;;4899843;28;20273;-69
2024/01/24 12:39:15;;;;;;;;;;;12.30;99.90;;;;;;4944948;28;19926;-69
2024/01/24 12:41:41;;;;;;;;;;;12.50;99.90;;;;;;4910067;28;19937;-69
2024/01/24 12:44:10;;;;;;;;;;;12.50;99.90;;;;;;4941980;28;20766;-70
2024/01/24 12:46:38;;;;;;;;;;;12.20;99.90;;;;;;4905585;28;19926;-69
2024/01/24 12:49:04;;;;;;;;;;;12.30;99.90;;;;;;4941874;28;20516;-69
2024/01/24 12:51:31;;;;;;;;;;;12.00;99.90;;;;;;4915826;28;19932;-68
2024/01/24 12:53:57;;;;;;;;;;;12.10;99.90;;;;;;4946109;28;20404;-68
2024/01/24 12:56:23;;;;;;;;;;;11.90;99.90;;;;;;4929515;28;19929;-69
2024/01/24 12:58:49;;;;;;;;;;;12.10;99.90;;;;;;4949082;28;19926;-69
2024/01/24 13:01:15;;;;;;;;;;;12.20;99.90;;;;;;4915095;28;19925;-69
2024/01/24 13:03:42;;;;;;;;;;;12.30;99.90;;;;;;4942550;28;19925;-68
2024/01/24 13:06:08;;;;;;;;;;;11.80;99.90;;;;;;4913697;28;19952;-69
2024/01/24 13:08:34;;;;;;;;;;;11.80;99.90;;;;;;4946067;28;21153;-69
2024/01/24 13:11:00;;;;;;;;;;;11.60;99.90;;;;;;4919157;28;21067;-69
2024/01/24 13:13:26;;;;;;;;;;;11.70;99.90;;;;;;4963129;28;19933;-70
2024/01/24 13:15:53;;;;;;;;;;;11.30;99.90;;;;;;4920741;28;19930;-70
2024/01/24 13:18:19;;;;;;;;;;;11.00;99.90;;;;;;4965513;28;19925;-67
2024/01/24 13:20:45;;;;;;;;;;;10.80;99.90;;;;;;4927863;28;20443;-69
2024/01/24 13:23:10;;;;;;;;;;;10.80;99.90;;;;;;4957167;28;20250;-69
2024/01/24 13:25:36;;;;;;;;;;;10.80;99.90;;;;;;4917482;28;20417;-68
2024/01/24 13:28:02;;;;;;;;;;;11.00;99.90;;;;;;4961253;28;19965;-68
2024/01/24 13:30:28;;;;;;;;;;;11.00;99.90;;;;;;4934401;28;20585;-69
2024/01/24 13:32:54;;;;;;;;;;;11.00;99.90;;;;;;4959241;28;20528;-68
2024/01/24 13:35:20;;;;;;;;;;;10.70;99.90;;;;;;4936004;28;19937;-69
2024/01/24 13:37:46;;;;;;;;;;;10.70;99.90;;;;;;4964328;28;19936;-69
2024/01/24 13:40:13;;;;;;;;;;;10.80;99.90;;;;;;4933566;28;20411;-70
2024/01/24 13:42:39;;;;;;;;;;;10.90;99.90;;;;;;4936903;28;19972;-68
2024/01/24 13:45:05;;;;;;;;;;;10.80;99.90;;;;;;4932281;28;19937;-68
2024/01/24 13:47:31;;;;;;;;;;;10.60;99.90;;;;;;4964180;28;20214;-68
2024/01/24 13:49:57;;;;;;;;;;;10.50;99.90;;;;;;4955457;28;20377;-68
2024/01/24 13:52:23;;;;;;;;;;;10.40;99.90;;;;;;4947433;28;19925;-69
2024/01/24 13:54:49;;;;;;;;;;;10.30;99.90;;;;;;4959714;28;19932;-69
2024/01/24 13:57:15;;;;;;;;;;;10.30;99.90;;;;;;4933726;28;19929;-70
2024/01/24 13:59:41;;;;;;;;;;;10.20;99.90;;;;;;4959553;28;19925;-70
2024/01/24 14:02:07;;;;;;;;;;;10.10;99.90;;;;;;4956601;28;19968;-70
2024/01/24 14:04:33;;;;;;;;;;;10.00;99.90;;;;;;4963884;28;19940;-69
2024/01/24 14:06:59;;;;;;;;;;;9.90;99.90;;;;;;4953899;28;19936;-69
2024/01/24 14:09:25;;;;;;;;;;;9.90;99.90;;;;;;4961766;28;19933;-68
2024/01/24 14:11:53;;;;;;;;;;;9.90;99.90;;;;;;4923086;28;19925;-70